createdAt,value
2018-04-11T00:01:36.255Z,13.81
2018-04-11T00:04:02.138Z,13.79
2018-04-11T00:06:28.007Z,13.80
2018-04-11T00:08:53.904Z,13.81
2018-04-11T00:11:19.783Z,13.86
2018-04-11T00:13:45.655Z,13.83
2018-04-11T00:16:11.561Z,13.83
2018-04-11T00:18:37.430Z,13.82
2018-04-11T00:21:03.295Z,13.83
2018-04-11T00:23:29.202Z,13.83
2018-04-11T00:25:55.091Z,13.77
2018-04-11T00:28:20.950Z,13.71
2018-04-11T00:30:46.850Z,13.60
2018-04-11T00:33:12.711Z,13.61
2018-04-11T00:35:38.572Z,13.52
2018-04-11T00:38:04.543Z,13.52
2018-04-11T00:40:30.388Z,13.52
2018-04-11T00:42:56.265Z,13.53
2018-04-11T00:45:22.163Z,13.47
2018-04-11T00:47:48.068Z,13.42
2018-04-11T00:50:13.940Z,13.38
2018-04-11T00:52:39.858Z,13.30
2018-04-11T00:55:05.711Z,13.34
2018-04-11T00:57:31.596Z,13.38
2018-04-11T00:59:57.515Z,13.40
2018-04-11T01:02:23.374Z,13.26
2018-04-11T01:04:49.227Z,13.31
2018-04-11T01:07:15.131Z,13.36
2018-04-11T01:09:40.991Z,13.36
2018-04-11T01:12:06.867Z,13.29
2018-04-11T01:14:32.783Z,13.39
2018-04-11T01:16:58.659Z,13.31
2018-04-11T01:19:24.520Z,13.38
2018-04-11T01:21:50.428Z,13.42
2018-04-11T01:24:16.296Z,13.48
2018-04-11T01:26:42.159Z,13.55
2018-04-11T01:29:08.067Z,13.50
2018-04-11T01:31:33.935Z,13.47
2018-04-11T01:33:59.795Z,13.51
2018-04-11T01:36:25.709Z,13.54
2018-04-11T01:38:51.651Z,13.47
2018-04-11T01:41:17.508Z,13.51
2018-04-11T01:43:43.398Z,13.57
2018-04-11T01:46:09.271Z,13.45
2018-04-11T01:48:35.136Z,13.47
2018-04-11T01:51:01.139Z,13.42
2018-04-11T01:53:27.008Z,13.47
2018-04-11T01:55:52.867Z,13.41
2018-04-11T01:58:18.796Z,13.38
2018-04-11T02:00:44.672Z,13.38
2018-04-11T02:03:10.607Z,13.34
2018-04-11T02:05:36.533Z,13.39
2018-04-11T02:08:02.417Z,13.41
2018-04-11T02:10:28.291Z,13.36
2018-04-11T02:12:54.186Z,13.32
2018-04-11T02:15:20.159Z,13.33
2018-04-11T02:17:46.033Z,13.40
2018-04-11T02:20:11.944Z,13.41
2018-04-11T02:22:37.803Z,13.42
2018-04-11T02:25:03.679Z,13.41
2018-04-11T02:27:29.683Z,13.43
2018-04-11T02:29:55.535Z,13.49
2018-04-11T02:32:21.487Z,13.42
2018-04-11T02:34:47.404Z,13.46
2018-04-11T02:37:13.255Z,13.39
2018-04-11T02:39:39.223Z,13.36
2018-04-11T02:42:05.137Z,13.38
2018-04-11T02:44:31.055Z,13.40
2018-04-11T02:46:56.936Z,13.34
2018-04-11T02:49:22.864Z,13.41
2018-04-11T02:51:48.817Z,13.37
2018-04-11T02:54:14.688Z,13.34
2018-04-11T02:56:40.662Z,13.38
2018-04-11T02:59:06.552Z,13.34
2018-04-11T03:01:32.439Z,13.34
2018-04-11T03:03:58.465Z,13.29
2018-04-11T03:06:24.323Z,13.20
2018-04-11T03:08:50.238Z,13.18
2018-04-11T03:11:16.199Z,13.17
2018-04-11T03:13:42.225Z,13.12
2018-04-11T03:16:08.170Z,13.18
2018-04-11T03:18:34.096Z,13.16
2018-04-11T03:21:00.044Z,13.18
2018-04-11T03:23:25.903Z,13.11
2018-04-11T03:25:51.827Z,13.20
2018-04-11T03:28:17.762Z,13.10
2018-04-11T03:30:43.847Z,13.17
2018-04-11T03:33:09.829Z,13.07
2018-04-11T03:35:35.687Z,13.07
2018-04-11T03:38:01.543Z,13.01
2018-04-11T03:40:27.708Z,13.01
2018-04-11T03:42:53.582Z,12.97
2018-04-11T03:45:19.499Z,12.95
2018-04-11T03:47:45.411Z,12.95
2018-04-11T03:50:11.289Z,12.90
2018-04-11T03:52:37.261Z,12.87
2018-04-11T03:55:03.156Z,12.78
2018-04-11T03:57:29.077Z,12.80
2018-04-11T03:59:54.953Z,12.72
2018-04-11T04:02:20.872Z,12.77
2018-04-11T04:04:46.879Z,12.85
2018-04-11T04:07:12.768Z,12.87
2018-04-11T04:09:38.731Z,12.90
2018-04-11T04:12:04.600Z,12.92
2018-04-11T04:14:43.234Z,12.87
2018-04-11T04:17:21.509Z,12.93
2018-04-11T04:19:59.791Z,12.90
2018-04-11T04:22:25.668Z,12.90
2018-04-11T04:24:51.563Z,12.86
2018-04-11T04:27:17.580Z,12.79
2018-04-11T04:29:43.432Z,12.80
2018-04-11T04:32:09.356Z,12.81
2018-04-11T04:34:35.257Z,12.76
2018-04-11T04:37:01.140Z,12.71
2018-04-11T04:39:27.095Z,12.64
2018-04-11T04:41:53.038Z,12.55
2018-04-11T04:44:19.052Z,12.51
2018-04-11T04:46:44.935Z,12.54
2018-04-11T04:49:10.859Z,12.44
2018-04-11T04:51:36.885Z,12.43
2018-04-11T04:54:02.745Z,12.33
2018-04-11T04:56:28.754Z,12.31
2018-04-11T04:58:54.629Z,12.33
2018-04-11T05:01:20.516Z,12.31
2018-04-11T05:03:46.540Z,12.29
2018-04-11T05:06:12.423Z,12.29
2018-04-11T05:08:38.357Z,12.20
2018-04-11T05:11:04.280Z,12.15
2018-04-11T05:13:30.570Z,12.08
2018-04-11T05:15:56.560Z,12.00
2018-04-11T05:18:22.492Z,11.92
2018-04-11T05:20:48.395Z,11.96
2018-04-11T05:23:14.262Z,11.94
2018-04-11T05:25:40.175Z,11.92
2018-04-11T05:28:06.126Z,11.88
2018-04-11T05:30:31.986Z,11.90
2018-04-11T05:32:57.941Z,11.87
2018-04-11T05:35:23.799Z,11.90
2018-04-11T05:37:49.648Z,11.86
2018-04-11T05:40:15.811Z,11.86
2018-04-11T05:42:41.658Z,11.86
2018-04-11T05:45:07.567Z,11.86
2018-04-11T05:47:33.505Z,11.95
2018-04-11T05:49:59.351Z,11.93
2018-04-11T05:52:25.303Z,12.03
2018-04-11T05:54:51.199Z,12.16
2018-04-11T05:57:17.094Z,12.19
2018-04-11T05:59:42.951Z,12.27
2018-04-11T06:02:08.851Z,12.19
2018-04-11T06:04:34.807Z,12.35
2018-04-11T06:07:00.665Z,12.60
2018-04-11T06:09:26.607Z,12.81
2018-04-11T06:11:52.467Z,12.84
2018-04-11T06:14:18.337Z,12.87
2018-04-11T06:16:44.373Z,12.91
2018-04-11T06:19:10.228Z,12.85
2018-04-11T06:21:36.145Z,12.83
2018-04-11T06:24:02.055Z,12.92
2018-04-11T06:26:27.911Z,12.95
2018-04-11T06:28:53.867Z,12.92
2018-04-11T06:31:19.755Z,12.94
2018-04-11T06:33:45.697Z,12.98
2018-04-11T06:36:11.638Z,13.04
2018-04-11T06:38:37.555Z,13.18
2018-04-11T06:41:03.495Z,13.22
2018-04-11T06:43:29.371Z,13.25
2018-04-11T06:45:55.320Z,13.38
2018-04-11T06:48:21.214Z,13.48
2018-04-11T06:50:47.058Z,13.63
2018-04-11T06:53:13.054Z,13.62
2018-04-11T06:55:38.899Z,13.62
2018-04-11T06:58:04.831Z,13.74
2018-04-11T07:00:30.741Z,13.81
2018-04-11T07:02:56.587Z,13.96
2018-04-11T07:05:22.455Z,14.06
2018-04-11T07:07:48.363Z,14.13
2018-04-11T07:10:14.219Z,14.28
2018-04-11T07:12:40.079Z,14.33
2018-04-11T07:15:05.974Z,14.37
2018-04-11T07:17:31.820Z,14.52
2018-04-11T07:19:57.804Z,14.45
2018-04-11T07:22:23.696Z,14.56
2018-04-11T07:24:49.588Z,14.72
2018-04-11T07:27:15.451Z,14.73
2018-04-11T07:29:41.354Z,14.77
2018-04-11T07:32:07.216Z,14.75
2018-04-11T07:34:33.071Z,14.93
2018-04-11T07:36:58.964Z,14.80
2018-04-11T07:39:24.825Z,15.12
2018-04-11T07:41:50.670Z,15.11
2018-04-11T07:44:16.596Z,15.37
2018-04-11T07:46:42.460Z,15.62
2018-04-11T07:49:08.322Z,15.67
2018-04-11T07:51:34.220Z,15.74
2018-04-11T07:54:00.140Z,16.04
2018-04-11T07:56:25.991Z,16.01
2018-04-11T07:58:51.902Z,16.38
2018-04-11T08:01:17.772Z,16.45
2018-04-11T08:03:43.632Z,16.32
2018-04-11T08:06:09.547Z,16.38
2018-04-11T08:08:35.415Z,16.47
2018-04-11T08:11:01.270Z,16.56
2018-04-11T08:13:27.195Z,16.90
2018-04-11T08:15:53.135Z,17.30
2018-04-11T08:18:19.011Z,17.32
2018-04-11T08:20:44.935Z,17.46
2018-04-11T08:23:10.817Z,17.30
2018-04-11T08:25:36.672Z,17.63
2018-04-11T08:28:02.578Z,17.98
2018-04-11T08:30:28.438Z,18.00
2018-04-11T08:32:54.312Z,17.27
2018-04-11T08:35:20.214Z,17.62
2018-04-11T08:37:46.079Z,17.58
2018-04-11T08:40:11.960Z,17.87
2018-04-11T08:42:37.889Z,18.35
2018-04-11T08:45:03.759Z,18.17
2018-04-11T08:47:29.629Z,18.01
2018-04-11T08:49:55.543Z,18.25
2018-04-11T08:52:21.403Z,18.22
2018-04-11T08:54:47.320Z,18.23
2018-04-11T08:57:13.231Z,18.35
2018-04-11T08:59:39.082Z,18.42
2018-04-11T09:02:04.952Z,18.78
2018-04-11T09:04:30.867Z,19.21
2018-04-11T09:06:56.739Z,19.26
2018-04-11T09:09:22.612Z,19.61
2018-04-11T09:11:48.515Z,19.45
2018-04-11T09:14:14.395Z,19.05
2018-04-11T09:16:40.256Z,19.39
2018-04-11T09:19:06.175Z,19.32
2018-04-11T09:21:32.051Z,19.84
2018-04-11T09:23:57.924Z,19.23
2018-04-11T09:26:23.857Z,19.15
2018-04-11T09:28:50.211Z,19.25
2018-04-11T09:31:16.080Z,19.59
2018-04-11T09:33:41.988Z,19.66
2018-04-11T09:36:07.851Z,20.23
2018-04-11T09:38:33.721Z,20.48
2018-04-11T09:40:59.624Z,20.13
2018-04-11T09:43:25.493Z,20.09
2018-04-11T09:45:51.371Z,19.82
2018-04-11T09:48:17.307Z,20.35
2018-04-11T09:50:43.176Z,20.89
2018-04-11T09:53:09.039Z,20.86
2018-04-11T09:55:35.016Z,21.23
2018-04-11T09:58:00.881Z,21.71
2018-04-11T10:00:26.783Z,21.53
2018-04-11T10:02:58.847Z,21.65
2018-04-11T10:05:24.710Z,21.45
2018-04-11T10:07:50.581Z,21.81
2018-04-11T10:10:16.516Z,21.51
2018-04-11T10:12:42.388Z,20.89
2018-04-11T10:15:08.259Z,21.42
2018-04-11T10:17:34.171Z,21.96
2018-04-11T10:20:00.048Z,21.94
2018-04-11T10:22:25.948Z,21.98
2018-04-11T10:24:51.898Z,22.45
2018-04-11T10:27:17.768Z,22.65
2018-04-11T10:29:43.819Z,22.07
2018-04-11T10:32:09.721Z,22.55
2018-04-11T10:34:35.599Z,22.31
2018-04-11T10:37:01.476Z,21.60
2018-04-11T10:39:27.381Z,21.82
2018-04-11T10:41:53.238Z,22.42
2018-04-11T10:44:19.133Z,22.59
2018-04-11T10:46:45.085Z,22.21
2018-04-11T10:49:10.956Z,21.39
2018-04-11T10:51:36.823Z,21.09
2018-04-11T10:54:02.748Z,21.96
2018-04-11T10:56:28.692Z,20.92
2018-04-11T10:58:54.561Z,20.26
2018-04-11T11:01:20.567Z,20.92
2018-04-11T11:03:46.437Z,20.71
2018-04-11T11:06:12.321Z,20.99
2018-04-11T11:08:38.215Z,20.75
2018-04-11T11:11:04.088Z,20.84
2018-04-11T11:13:29.977Z,21.53
2018-04-11T11:15:55.897Z,21.85
2018-04-11T11:18:21.775Z,22.17
2018-04-11T11:20:54.589Z,22.51
2018-04-11T11:23:20.508Z,23.51
2018-04-11T11:25:46.410Z,24.08
2018-04-11T11:28:12.279Z,24.12
2018-04-11T11:30:38.204Z,23.92
2018-04-11T11:33:04.075Z,23.87
2018-04-11T11:35:29.971Z,23.81
2018-04-11T11:37:55.885Z,24.78
2018-04-11T11:40:21.743Z,25.53
2018-04-11T11:42:47.619Z,25.86
2018-04-11T11:45:13.546Z,25.17
2018-04-11T11:47:39.425Z,24.80
2018-04-11T11:50:05.338Z,24.93
2018-04-11T11:52:31.244Z,22.90
2018-04-11T11:54:57.124Z,24.19
2018-04-11T11:57:23.079Z,24.46
2018-04-11T11:59:48.997Z,24.14
2018-04-11T12:02:14.903Z,23.65
2018-04-11T12:04:40.776Z,23.58
2018-04-11T12:07:06.693Z,23.09
2018-04-11T12:09:32.656Z,22.80
2018-04-11T12:11:58.524Z,22.71
2018-04-11T12:14:24.444Z,22.70
2018-04-11T12:16:50.333Z,22.62
2018-04-11T12:19:16.203Z,22.19
2018-04-11T12:21:42.211Z,22.17
2018-04-11T12:24:08.082Z,22.30
2018-04-11T12:26:33.960Z,22.78
2018-04-11T12:28:59.884Z,22.84
2018-04-11T12:31:25.798Z,22.52
2018-04-11T12:33:51.739Z,22.11
2018-04-11T12:36:17.650Z,21.91
2018-04-11T12:38:43.519Z,22.01
2018-04-11T12:41:09.392Z,21.74
2018-04-11T12:43:35.320Z,22.01
2018-04-11T12:46:01.271Z,21.77
2018-04-11T12:48:27.144Z,20.95
2018-04-11T12:50:53.060Z,21.09
2018-04-11T12:53:18.942Z,20.63
2018-04-11T12:55:44.822Z,20.73
2018-04-11T12:58:10.856Z,20.74
2018-04-11T13:00:36.735Z,20.68
2018-04-11T13:03:02.593Z,21.00
2018-04-11T13:05:28.540Z,20.77
2018-04-11T13:07:54.409Z,20.72
2018-04-11T13:10:20.367Z,20.96
2018-04-11T13:12:46.288Z,20.98
2018-04-11T13:15:12.152Z,21.15
2018-04-11T13:17:38.029Z,20.83
2018-04-11T13:20:03.935Z,20.95
2018-04-11T13:22:29.887Z,21.13
2018-04-11T13:24:55.786Z,21.13
2018-04-11T13:27:21.703Z,20.20
2018-04-11T13:29:47.580Z,20.36
2018-04-11T13:32:13.447Z,20.77
2018-04-11T13:34:39.567Z,20.71
2018-04-11T13:37:05.448Z,20.42
2018-04-11T13:39:31.316Z,20.41
2018-04-11T13:41:57.238Z,20.08
2018-04-11T13:44:23.115Z,20.47
2018-04-11T13:46:49.127Z,20.57
2018-04-11T13:49:15.044Z,20.92
2018-04-11T13:51:40.911Z,20.39
2018-04-11T13:54:06.779Z,20.35
2018-04-11T13:56:32.682Z,20.53
2018-04-11T13:58:58.638Z,20.63
2018-04-11T14:01:24.552Z,20.71
2018-04-11T14:03:50.459Z,20.58
2018-04-11T14:06:16.336Z,20.53
2018-04-11T14:08:42.212Z,20.61
2018-04-11T14:11:08.231Z,20.68
2018-04-11T14:13:34.133Z,20.19
2018-04-11T14:16:00.003Z,20.39
2018-04-11T14:18:25.924Z,20.48
2018-04-11T14:20:51.796Z,20.47
2018-04-11T14:23:17.871Z,20.31
2018-04-11T14:25:43.830Z,20.12
2018-04-11T14:28:09.729Z,20.12
2018-04-11T14:30:35.620Z,20.03
2018-04-11T14:33:01.626Z,20.17
2018-04-11T14:35:27.597Z,20.22
2018-04-11T14:37:53.486Z,20.41
2018-04-11T14:40:19.719Z,20.13
2018-04-11T14:42:45.645Z,20.22
2018-04-11T14:45:11.556Z,20.40
2018-04-11T14:47:37.564Z,20.19
2018-04-11T14:50:03.467Z,20.07
2018-04-11T14:52:29.363Z,19.64
2018-04-11T14:54:55.276Z,19.50
2018-04-11T14:57:21.151Z,18.99
2018-04-11T14:59:47.095Z,18.89
2018-04-11T15:02:13.004Z,18.73
2018-04-11T15:04:38.883Z,19.06
2018-04-11T15:07:05.024Z,19.24
2018-04-11T15:09:30.955Z,19.34
2018-04-11T15:11:56.935Z,19.09
2018-04-11T15:14:22.831Z,19.40
2018-04-11T15:16:48.972Z,19.49
2018-04-11T15:19:14.839Z,19.42
2018-04-11T15:21:40.770Z,18.99
2018-04-11T15:24:06.819Z,18.65
2018-04-11T15:26:32.699Z,18.66
2018-04-11T15:28:58.555Z,18.82
2018-04-11T15:31:24.760Z,18.73
2018-04-11T15:33:50.630Z,18.53
2018-04-11T15:36:16.588Z,18.56
2018-04-11T15:38:42.503Z,18.46
2018-04-11T15:41:08.384Z,18.72
2018-04-11T15:43:34.287Z,18.95
2018-04-11T15:46:00.223Z,18.72
2018-04-11T15:48:26.183Z,18.60
2018-04-11T15:50:52.058Z,18.88
2018-04-11T15:53:17.976Z,18.66
2018-04-11T15:55:43.848Z,18.74
2018-04-11T15:58:09.720Z,18.34
2018-04-11T16:00:35.756Z,18.50
2018-04-11T16:03:01.644Z,18.29
2018-04-11T16:05:27.524Z,18.34
2018-04-11T16:07:53.438Z,18.36
2018-04-11T16:10:19.308Z,18.26
2018-04-11T16:12:45.278Z,18.39
2018-04-11T16:15:11.187Z,18.17
2018-04-11T16:17:37.055Z,17.94
2018-04-11T16:20:02.970Z,17.81
2018-04-11T16:22:28.882Z,17.76
2018-04-11T16:24:54.847Z,17.75
2018-04-11T16:27:20.725Z,17.71
2018-04-11T16:29:46.675Z,17.61
2018-04-11T16:32:12.631Z,17.56
2018-04-11T16:34:38.609Z,17.44
2018-04-11T16:37:04.602Z,17.31
2018-04-11T16:39:30.472Z,17.26
2018-04-11T16:41:56.362Z,17.23
2018-04-11T16:44:22.273Z,17.21
2018-04-11T16:46:48.187Z,17.13
2018-04-11T16:49:14.111Z,17.05
2018-04-11T16:51:40.031Z,16.93
2018-04-11T16:54:05.900Z,16.81
2018-04-11T16:56:31.769Z,16.86
2018-04-11T16:58:57.679Z,16.77
2018-04-11T17:01:23.670Z,16.65
2018-04-11T17:03:49.568Z,16.54
2018-04-11T17:06:15.487Z,16.41
2018-04-11T17:08:41.371Z,16.38
2018-04-11T17:11:07.254Z,16.15
2018-04-11T17:13:33.241Z,16.14
2018-04-11T17:15:59.120Z,16.09
2018-04-11T17:18:25.011Z,15.87
2018-04-11T17:21:03.139Z,15.85
2018-04-11T17:23:41.355Z,15.71
2018-04-11T17:26:19.676Z,15.57
2018-04-11T17:28:57.752Z,15.45
2018-04-11T17:31:23.695Z,15.45
2018-04-11T17:33:49.668Z,15.39
2018-04-11T17:36:15.650Z,15.22
2018-04-11T17:38:41.603Z,15.24
2018-04-11T17:41:07.468Z,15.06
2018-04-11T17:43:33.336Z,14.88
2018-04-11T17:45:59.340Z,14.82
2018-04-11T17:48:25.208Z,14.77
2018-04-11T17:50:51.148Z,14.83
2018-04-11T17:53:17.075Z,14.74
2018-04-11T17:55:43.020Z,14.67
2018-04-11T17:58:09.003Z,14.55
2018-04-11T18:00:34.947Z,14.42
2018-04-11T18:03:00.915Z,14.35
2018-04-11T18:05:26.795Z,14.38
2018-04-11T18:07:52.813Z,14.31
2018-04-11T18:10:18.733Z,14.28
2018-04-11T18:12:44.615Z,14.33
2018-04-11T18:15:10.667Z,14.20
2018-04-11T18:17:36.532Z,14.16
2018-04-11T18:20:02.450Z,14.10
2018-04-11T18:22:28.399Z,14.04
2018-04-11T18:24:54.331Z,13.88
2018-04-11T18:27:20.224Z,13.86
2018-04-11T18:29:46.155Z,13.99
2018-04-11T18:32:12.078Z,13.95
2018-04-11T18:34:37.941Z,13.84
2018-04-11T18:37:03.867Z,13.79
2018-04-11T18:39:29.817Z,13.81
2018-04-11T18:41:55.676Z,13.78
2018-04-11T18:44:21.584Z,13.61
2018-04-11T18:46:47.460Z,13.66
2018-04-11T18:49:13.333Z,13.70
2018-04-11T18:51:39.234Z,13.59
2018-04-11T18:54:05.128Z,13.53
2018-04-11T18:56:31.083Z,13.52
2018-04-11T18:58:57.043Z,13.46
2018-04-11T19:01:23.242Z,13.50
2018-04-11T19:03:49.112Z,13.50
2018-04-11T19:06:15.025Z,13.46
2018-04-11T19:08:41.226Z,13.41
2018-04-11T19:11:07.204Z,13.37
2018-04-11T19:13:33.132Z,13.34
2018-04-11T19:15:59.227Z,13.37
2018-04-11T19:18:25.107Z,13.37
2018-04-11T19:20:51.042Z,13.32
2018-04-11T19:23:17.206Z,13.30
2018-04-11T19:25:43.887Z,13.31
2018-04-11T19:28:09.796Z,13.24
2018-04-11T19:30:35.682Z,13.34
2018-04-11T19:33:01.552Z,13.30
2018-04-11T19:35:27.472Z,13.29
2018-04-11T19:37:53.679Z,13.39
2018-04-11T19:40:19.584Z,13.34
2018-04-11T19:42:45.479Z,13.28
2018-04-11T19:45:11.360Z,13.25
2018-04-11T19:47:37.635Z,13.19
2018-04-11T19:50:03.589Z,13.17
2018-04-11T19:52:29.485Z,13.30
2018-04-11T19:54:55.351Z,13.21
2018-04-11T19:57:21.260Z,13.20
2018-04-11T19:59:47.153Z,13.26
2018-04-11T20:02:13.015Z,13.21
2018-04-11T20:04:38.955Z,13.22
2018-04-11T20:07:04.840Z,13.28
2018-04-11T20:09:30.721Z,13.27
2018-04-11T20:11:56.733Z,13.19
2018-04-11T20:14:22.624Z,13.17
2018-04-11T20:16:48.507Z,13.18
2018-04-11T20:19:14.471Z,13.20
2018-04-11T20:21:40.332Z,13.20
2018-04-11T20:24:07.175Z,13.13
2018-04-11T20:26:33.087Z,13.11
2018-04-11T20:28:58.968Z,13.10
2018-04-11T20:31:24.831Z,13.12
2018-04-11T20:33:50.767Z,13.11
2018-04-11T20:36:16.724Z,13.13
2018-04-11T20:38:42.587Z,13.10
2018-04-11T20:41:08.506Z,13.07
2018-04-11T20:43:34.367Z,13.04
2018-04-11T20:46:00.246Z,13.03
2018-04-11T20:48:26.596Z,13.11
2018-04-11T20:50:52.462Z,13.06
2018-04-11T20:53:18.315Z,13.03
2018-04-11T20:55:44.226Z,13.08
2018-04-11T20:58:10.113Z,12.98
2018-04-11T21:00:36.069Z,13.12
2018-04-11T21:03:02.020Z,13.12
2018-04-11T21:05:27.885Z,13.10
2018-04-11T21:07:53.751Z,13.07
2018-04-11T21:10:19.669Z,13.03
2018-04-11T21:12:46.423Z,13.09
2018-04-11T21:15:12.279Z,13.08
2018-04-11T21:17:38.183Z,13.15
2018-04-11T21:20:04.060Z,13.17
2018-04-11T21:22:29.924Z,13.17
2018-04-11T21:24:55.916Z,13.17
2018-04-11T21:27:21.789Z,13.06
2018-04-11T21:29:47.745Z,13.09
2018-04-11T21:32:13.656Z,13.10
2018-04-11T21:34:39.512Z,13.07
2018-04-11T21:37:05.481Z,13.08
2018-04-11T21:39:31.392Z,12.98
2018-04-11T21:41:57.264Z,12.95
2018-04-11T21:44:23.167Z,12.95
2018-04-11T21:46:49.084Z,12.98
2018-04-11T21:49:15.023Z,12.95
2018-04-11T21:51:40.903Z,12.93
2018-04-11T21:54:07.200Z,12.95
2018-04-11T21:56:33.068Z,12.91
2018-04-11T21:58:58.958Z,12.85
2018-04-11T22:01:24.950Z,12.78
2018-04-11T22:03:50.907Z,12.84
2018-04-11T22:06:16.767Z,12.79
2018-04-11T22:08:42.663Z,12.73
2018-04-11T22:11:08.540Z,12.71
2018-04-11T22:13:34.490Z,12.65
2018-04-11T22:16:00.403Z,12.78
2018-04-11T22:18:26.262Z,12.74
2018-04-11T22:20:52.136Z,12.67
2018-04-11T22:23:18.049Z,12.67
2018-04-11T22:25:44.096Z,12.59
2018-04-11T22:28:10.077Z,12.58
2018-04-11T22:30:36.019Z,12.57
2018-04-11T22:33:01.867Z,12.58
2018-04-11T22:35:27.749Z,12.65
2018-04-11T22:37:53.751Z,12.55
2018-04-11T22:40:19.624Z,12.53
2018-04-11T22:42:45.492Z,12.47
2018-04-11T22:45:11.441Z,12.48
2018-04-11T22:47:37.316Z,12.48
2018-04-11T22:50:03.287Z,12.41
2018-04-11T22:52:29.189Z,12.38
2018-04-11T22:54:55.075Z,12.35
2018-04-11T22:57:20.936Z,12.28
2018-04-11T22:59:46.856Z,12.21
2018-04-11T23:02:12.838Z,12.29
2018-04-11T23:04:38.717Z,12.18
2018-04-11T23:07:04.647Z,12.24
2018-04-11T23:09:30.523Z,12.29
2018-04-11T23:11:56.385Z,12.25
2018-04-11T23:14:22.388Z,12.31
2018-04-11T23:16:48.271Z,12.23
2018-04-11T23:19:14.224Z,12.21
2018-04-11T23:21:40.136Z,12.17
2018-04-11T23:24:06.016Z,12.15
2018-04-11T23:26:31.971Z,12.23
2018-04-11T23:28:57.879Z,12.18
2018-04-11T23:31:23.751Z,12.09
2018-04-11T23:33:49.625Z,12.11
2018-04-11T23:36:15.516Z,11.99
2018-04-11T23:38:41.472Z,12.00
2018-04-11T23:41:07.336Z,11.96
2018-04-11T23:43:33.254Z,11.93
2018-04-11T23:45:59.136Z,11.96
2018-04-11T23:48:24.996Z,11.96
2018-04-11T23:50:50.984Z,11.93
2018-04-11T23:53:16.835Z,11.95
2018-04-11T23:55:42.686Z,11.98
2018-04-11T23:58:08.587Z,11.94
